Time;durP1;ratioP1;P1;durP2;ratioP2;P2;SDS_P1;SDS_P2;PMS_P1;PMS_P2;Temp;Humidity;BMP_temperature;BMP_pressure;BME280_temperature;BME280_humidity;BME280_pressure;Samples;Min_cycle;Max_cycle;Signal;HPM_P1;HPM_P2
2021/01/31 00:02:04;;;;;;;10.67;8.30;;;1.90;99.90;;;;;;4996297;28;20211;-72
2021/01/31 00:04:30;;;;;;;11.53;9.33;;;1.90;99.90;;;;;;4996258;28;20195;-71
2021/01/31 00:06:56;;;;;;;10.63;8.50;;;2.00;99.90;;;;;;4996316;28;20537;-71
2021/01/31 00:09:22;;;;;;;9.57;8.57;;;2.00;99.90;;;;;;4996042;28;20225;-71
2021/01/31 00:11:47;;;;;;;10.90;8.80;;;2.10;99.90;;;;;;4995626;28;20438;-71
2021/01/31 00:14:13;;;;;;;11.23;8.23;;;2.10;99.90;;;;;;4996515;28;20411;-72
2021/01/31 00:16:39;;;;;;;12.20;9.17;;;2.00;99.90;;;;;;4996242;28;20184;-73
2021/01/31 00:19:04;;;;;;;12.33;9.50;;;2.00;99.90;;;;;;4996230;28;20545;-71
2021/01/31 00:21:30;;;;;;;11.53;9.70;;;1.90;99.90;;;;;;4996475;28;20184;-71
2021/01/31 00:23:55;;;;;;;10.70;8.80;;;1.90;99.90;;;;;;4996992;28;20195;-71
2021/01/31 00:26:21;;;;;;;11.67;7.50;;;1.90;99.90;;;;;;4996805;28;20238;-71
2021/01/31 00:28:46;;;;;;;10.20;8.70;;;1.80;99.90;;;;;;4996338;28;20236;-71
2021/01/31 00:31:12;;;;;;;14.70;9.23;;;1.80;99.90;;;;;;4996036;28;20208;-72
2021/01/31 00:33:37;;;;;;;11.70;9.23;;;1.70;99.90;;;;;;4995923;28;20208;-71
2021/01/31 00:36:03;;;;;;;11.77;9.83;;;1.60;99.90;;;;;;4995715;28;20601;-71
2021/01/31 00:38:29;;;;;;;10.10;8.90;;;1.60;99.90;;;;;;4996056;28;20183;-71
2021/01/31 00:40:55;;;;;;;11.30;9.10;;;1.70;99.90;;;;;;4995576;28;20463;-71
2021/01/31 00:43:20;;;;;;;13.63;8.60;;;1.70;99.90;;;;;;4995756;28;20196;-71
2021/01/31 00:45:46;;;;;;;11.40;9.03;;;1.90;99.90;;;;;;4995774;28;20419;-71
2021/01/31 00:48:13;;;;;;;10.97;8.23;;;1.90;99.90;;;;;;4995390;28;20483;-71
2021/01/31 00:50:39;;;;;;;12.50;9.30;;;2.00;99.90;;;;;;4995647;28;20176;-72
2021/01/31 00:53:06;;;;;;;9.87;7.80;;;2.00;99.90;;;;;;4995833;28;20447;-71
2021/01/31 00:55:32;;;;;;;11.27;8.70;;;2.00;99.90;;;;;;4995834;28;20423;-71
2021/01/31 00:57:58;;;;;;;11.60;8.77;;;2.00;99.90;;;;;;4995481;28;20435;-71
2021/01/31 01:00:30;;;;;;;9.67;7.80;;;2.00;99.90;;;;;;4995669;28;20172;-70
2021/01/31 01:02:56;;;;;;;11.27;8.27;;;2.00;99.90;;;;;;4993757;28;20210;-71
2021/01/31 01:05:25;;;;;;;11.07;8.30;;;2.10;99.90;;;;;;4976081;28;20431;-71
2021/01/31 01:07:51;;;;;;;13.53;9.10;;;1.90;99.90;;;;;;4976522;28;20404;-71
2021/01/31 01:10:20;;;;;;;10.90;8.70;;;1.90;99.90;;;;;;4975988;28;20409;-71
2021/01/31 01:12:46;;;;;;;11.23;8.20;;;1.90;99.90;;;;;;4976404;28;20279;-72
2021/01/31 01:15:15;;;;;;;11.20;8.20;;;2.00;99.90;;;;;;4988708;28;20435;-71
2021/01/31 01:17:41;;;;;;;11.83;8.70;;;2.00;99.90;;;;;;4995358;28;20454;-71
2021/01/31 01:20:08;;;;;;;11.63;8.60;;;2.00;99.90;;;;;;4995747;28;20403;-71
2021/01/31 01:22:34;;;;;;;10.93;8.63;;;2.00;99.90;;;;;;4994484;28;20250;-71
2021/01/31 01:25:02;;;;;;;11.00;8.57;;;2.00;99.90;;;;;;4994646;28;20420;-71
2021/01/31 01:27:29;;;;;;;10.33;9.20;;;1.90;99.90;;;;;;4994960;28;20586;-71
2021/01/31 01:29:54;;;;;;;11.83;8.37;;;1.90;99.90;;;;;;4993997;28;20491;-71
2021/01/31 01:32:20;;;;;;;9.47;7.90;;;1.80;99.90;;;;;;4994783;28;20506;-71
2021/01/31 01:34:45;;;;;;;11.40;8.87;;;1.90;99.90;;;;;;4995002;28;20176;-71
2021/01/31 01:37:12;;;;;;;11.33;8.83;;;1.90;99.90;;;;;;4994846;28;20210;-73
2021/01/31 01:39:37;;;;;;;10.60;7.73;;;1.90;99.90;;;;;;4995393;28;20713;-72
2021/01/31 01:42:06;;;;;;;11.80;8.07;;;1.90;99.90;;;;;;4995449;28;20407;-73
2021/01/31 01:44:33;;;;;;;13.20;8.70;;;2.00;99.90;;;;;;4995684;28;20310;-71
2021/01/31 01:47:02;;;;;;;9.70;8.17;;;2.00;99.90;;;;;;4996146;28;20435;-71
2021/01/31 01:49:32;;;;;;;10.87;8.80;;;2.00;99.90;;;;;;4995936;28;20486;-71
2021/01/31 01:52:02;;;;;;;13.00;9.93;;;1.90;99.90;;;;;;4995168;28;20411;-72
2021/01/31 01:54:33;;;;;;;10.97;9.13;;;1.90;99.90;;;;;;4995391;28;20928;-70
2021/01/31 01:57:07;;;;;;;13.30;9.60;;;1.90;99.90;;;;;;4995113;28;20450;-71
2021/01/31 01:59:35;;;;;;;10.23;8.70;;;1.80;99.90;;;;;;4995446;28;20465;-71
2021/01/31 02:02:18;;;;;;;12.30;8.97;;;1.80;99.90;;;;;;4994853;28;20896;-71
2021/01/31 02:04:45;;;;;;;10.27;8.40;;;1.70;99.90;;;;;;4994912;28;20434;-71
2021/01/31 02:07:11;;;;;;;9.77;8.47;;;1.60;99.90;;;;;;4994261;28;20497;-72
2021/01/31 02:09:38;;;;;;;14.50;9.67;;;1.40;99.90;;;;;;4994330;28;20832;-71
2021/01/31 02:12:05;;;;;;;10.37;8.53;;;1.30;99.90;;;;;;4994329;28;20428;-71
2021/01/31 02:14:33;;;;;;;10.32;8.93;;;1.40;99.90;;;;;;4995153;28;20407;-71
2021/01/31 02:17:15;;;;;;;10.87;7.60;;;1.40;99.90;;;;;;4995085;28;20590;-71
2021/01/31 02:20:14;;;;;;;11.33;8.97;;;1.50;99.90;;;;;;4993533;28;20815;-71
2021/01/31 02:22:58;;;;;;;10.73;8.23;;;1.60;99.90;;;;;;4994739;28;20791;-71
2021/01/31 02:25:36;;;;;;;12.52;8.73;;;1.60;99.90;;;;;;4994977;28;20431;-71
2021/01/31 02:28:11;;;;;;;11.60;8.83;;;1.60;99.90;;;;;;4999322;28;22021;-72
2021/01/31 02:31:04;;;;;;;9.57;7.83;;;1.60;99.90;;;;;;5008005;28;20537;-71
2021/01/31 02:33:57;;;;;;;11.23;8.95;;;1.70;99.90;;;;;;5005537;28;20930;-72
2021/01/31 02:36:44;;;;;;;14.13;9.20;;;1.70;99.90;;;;;;4995313;28;20194;-71
2021/01/31 02:40:00;;;;;;;10.73;8.37;;;1.70;99.90;;;;;;4990948;28;20396;-72
2021/01/31 02:42:36;;;;;;;9.77;8.20;;;1.60;99.90;;;;;;4997353;28;20441;-71
2021/01/31 02:45:23;;;;;;;11.30;8.43;;;1.60;99.90;;;;;;4984211;28;20466;-71
2021/01/31 02:48:01;;;;;;;12.80;8.70;;;1.60;99.90;;;;;;4957838;28;20447;-71
2021/01/31 02:50:39;;;;;;;10.37;7.67;;;1.50;99.90;;;;;;4977397;28;20256;-71
2021/01/31 02:53:14;;;;;;;10.65;7.72;;;1.50;99.90;;;;;;4977475;28;20436;-72
2021/01/31 02:56:13;;;;;;;10.68;8.57;;;1.50;99.90;;;;;;4977371;28;20172;-71
2021/01/31 02:58:46;;;;;;;12.15;8.95;;;1.50;99.90;;;;;;4967969;28;20204;-71
2021/01/31 03:01:44;;;;;;;11.83;8.47;;;1.40;99.90;;;;;;4976375;28;20195;-71
2021/01/31 03:04:35;;;;;;;10.35;8.50;;;1.40;99.90;;;;;;4937988;29;20441;-71
2021/01/31 03:07:21;;;;;;;10.88;8.20;;;1.40;99.90;;;;;;4938886;29;20257;-71
2021/01/31 03:09:56;;;;;;;11.73;7.93;;;1.40;99.90;;;;;;4936482;29;20213;-71
2021/01/31 03:12:28;;;;;;;11.00;8.20;;;1.40;99.90;;;;;;4937933;29;20445;-72
2021/01/31 03:15:01;;;;;;;10.80;8.07;;;1.30;99.90;;;;;;4938041;29;20417;-71
2021/01/31 03:17:34;;;;;;;11.67;8.03;;;1.20;99.90;;;;;;4943236;29;20588;-71
2021/01/31 03:20:20;;;;;;;10.57;7.45;;;1.10;99.90;;;;;;4955372;29;20425;-71
2021/01/31 03:22:50;;;;;;;12.67;8.73;;;1.10;99.90;;;;;;4956926;29;20217;-71
2021/01/31 03:25:25;;;;;;;9.38;7.78;;;1.00;99.90;;;;;;4957364;29;20437;-72
2021/01/31 03:27:51;;;;;;;10.87;8.50;;;0.90;99.90;;;;;;4957244;29;20702;-71
2021/01/31 03:30:17;;;;;;;13.43;7.83;;;0.80;99.90;;;;;;4955303;29;20507;-71
2021/01/31 03:32:49;;;;;;;11.98;9.32;;;0.70;99.90;;;;;;4956174;29;20440;-72
2021/01/31 03:35:36;;;;;;;12.50;8.18;;;0.70;99.90;;;;;;4957207;29;20212;-71
2021/01/31 03:38:14;;;;;;;9.53;7.47;;;0.80;99.90;;;;;;4961240;29;20217;-71
2021/01/31 03:40:45;;;;;;;9.50;7.47;;;0.70;99.90;;;;;;4988695;28;20829;-71
2021/01/31 03:43:10;;;;;;;11.60;8.65;;;0.60;99.90;;;;;;5008602;28;20469;-71
2021/01/31 03:46:04;;;;;;;12.80;9.23;;;0.50;99.90;;;;;;5002019;28;20637;-71
2021/01/31 03:48:39;;;;;;;12.30;7.95;;;0.40;99.90;;;;;;4997271;28;20228;-71
2021/01/31 03:51:05;;;;;;;11.90;9.50;;;0.30;99.90;;;;;;4999489;28;20167;-71
2021/01/31 03:53:30;;;;;;;12.00;8.53;;;0.30;99.90;;;;;;4997952;28;20188;-71
2021/01/31 03:55:57;;;;;;;11.97;7.80;;;0.40;99.90;;;;;;4998308;28;20665;-72
2021/01/31 03:58:25;;;;;;;9.88;7.70;;;0.40;99.90;;;;;;4996369;28;20224;-71
2021/01/31 04:01:03;;;;;;;13.65;8.93;;;0.40;99.90;;;;;;4996223;28;20259;-72
2021/01/31 04:03:37;;;;;;;11.75;8.50;;;0.40;99.90;;;;;;4995781;28;20204;-71
2021/01/31 04:06:10;;;;;;;10.43;7.68;;;0.40;99.90;;;;;;4997013;28;20625;-72
2021/01/31 04:08:36;;;;;;;11.38;7.80;;;0.40;99.90;;;;;;4996298;28;20220;-71
2021/01/31 04:11:03;;;;;;;11.63;9.07;;;0.40;99.90;;;;;;4996582;28;20176;-71
2021/01/31 04:13:31;;;;;;;8.55;7.63;;;0.40;99.90;;;;;;4996494;28;20197;-71
2021/01/31 04:15:59;;;;;;;8.23;6.28;;;0.40;99.90;;;;;;4996962;28;20708;-71
2021/01/31 04:18:25;;;;;;;10.40;8.60;;;0.30;99.90;;;;;;4995735;28;20562;-71
2021/01/31 04:20:52;;;;;;;9.77;7.40;;;0.30;99.90;;;;;;4996436;28;20169;-73
2021/01/31 04:23:19;;;;;;;11.20;8.15;;;0.20;99.90;;;;;;4996211;28;20959;-71
2021/01/31 04:25:45;;;;;;;14.07;9.30;;;0.20;99.90;;;;;;4996442;28;20207;-71
2021/01/31 04:28:23;;;;;;;11.65;8.07;;;0.20;99.90;;;;;;4995530;28;20200;-71
2021/01/31 04:30:55;;;;;;;11.45;8.90;;;0.20;99.90;;;;;;4977165;28;20215;-72
2021/01/31 04:33:21;;;;;;;12.15;8.98;;;0.30;99.90;;;;;;4980129;28;20290;-71
2021/01/31 04:35:46;;;;;;;11.83;9.23;;;0.20;99.90;;;;;;4996634;28;20545;-71
2021/01/31 04:38:12;;;;;;;10.70;8.83;;;0.30;99.90;;;;;;4996071;28;20168;-71
2021/01/31 04:40:37;;;;;;;12.73;7.97;;;0.40;99.90;;;;;;4996179;28;20184;-72
2021/01/31 04:43:09;;;;;;;11.23;7.63;;;0.40;99.90;;;;;;4996334;28;20272;-73
2021/01/31 04:45:37;;;;;;;9.55;7.18;;;0.40;99.90;;;;;;4995914;28;20172;-72
2021/01/31 04:48:35;;;;;;;10.77;8.35;;;0.40;99.90;;;;;;4996456;28;20171;-71
2021/01/31 04:51:25;;;;;;;10.90;8.38;;;0.40;99.90;;;;;;4995425;28;20196;-72
2021/01/31 04:53:57;;;;;;;12.73;7.88;;;0.40;99.90;;;;;;4996529;28;20209;-71
2021/01/31 04:56:47;;;;;;;10.88;8.20;;;0.40;99.90;;;;;;4995955;28;20172;-71
2021/01/31 04:59:25;;;;;;;10.10;7.53;;;0.40;99.90;;;;;;4994569;28;20172;-71
2021/01/31 05:01:56;;;;;;;12.85;9.02;;;0.40;99.90;;;;;;4995308;28;20184;-71
2021/01/31 05:04:24;;;;;;;10.25;7.40;;;0.40;99.90;;;;;;4996109;28;20549;-72
2021/01/31 05:06:53;;;;;;;10.25;8.10;;;0.40;99.90;;;;;;4994845;28;20609;-72
2021/01/31 05:09:22;;;;;;;11.30;8.05;;;0.40;99.90;;;;;;4995913;28;20676;-72
2021/01/31 05:12:18;;;;;;;10.75;7.70;;;0.40;99.90;;;;;;4994305;28;20187;-72
2021/01/31 05:15:27;;;;;;;10.98;8.52;;;0.40;99.90;;;;;;4995645;28;20239;-72
2021/01/31 05:17:56;;;;;;;10.38;8.15;;;0.40;99.90;;;;;;4974081;28;20223;-71
2021/01/31 05:20:25;;;;;;;10.43;8.13;;;0.40;99.90;;;;;;4973506;28;20717;-71
2021/01/31 05:22:54;;;;;;;12.30;8.32;;;0.30;99.90;;;;;;4973671;28;20213;-72
2021/01/31 05:25:24;;;;;;;11.80;8.50;;;0.30;99.90;;;;;;4973602;28;20232;-71
2021/01/31 05:27:54;;;;;;;10.05;7.65;;;0.30;99.90;;;;;;4973551;28;20200;-71
2021/01/31 05:30:20;;;;;;;11.15;7.80;;;0.30;99.90;;;;;;4973833;28;20174;-72
2021/01/31 05:33:14;;;;;;;13.77;8.00;;;0.30;99.90;;;;;;4973805;28;20676;-72
2021/01/31 05:35:46;;;;;;;11.48;8.23;;;0.30;99.90;;;;;;4974386;28;20178;-72
2021/01/31 05:38:13;;;;;;;13.20;8.63;;;0.30;99.90;;;;;;4973414;28;20189;-72
2021/01/31 05:40:44;;;;;;;11.30;9.00;;;0.30;99.90;;;;;;4973457;28;20189;-72
2021/01/31 05:43:21;;;;;;;10.30;8.27;;;0.30;99.90;;;;;;4973663;28;20193;-72
2021/01/31 05:45:46;;;;;;;9.73;7.50;;;0.30;99.90;;;;;;4973946;28;20542;-73
2021/01/31 05:48:19;;;;;;;12.93;8.67;;;0.30;99.90;;;;;;4973037;28;20292;-72
2021/01/31 05:50:46;;;;;;;11.32;7.68;;;0.30;99.90;;;;;;4973593;28;20180;-72
2021/01/31 05:53:31;;;;;;;9.27;7.30;;;0.40;99.90;;;;;;4957503;28;20208;-72
2021/01/31 05:56:22;;;;;;;9.15;7.15;;;0.40;99.90;;;;;;4994646;28;20192;-72
2021/01/31 05:58:54;;;;;;;10.73;7.60;;;0.40;99.90;;;;;;4994162;28;20175;-72
2021/01/31 06:01:20;;;;;;;10.00;6.95;;;0.40;99.90;;;;;;4994742;28;20176;-72
2021/01/31 06:03:45;;;;;;;12.80;8.80;;;0.40;99.90;;;;;;4994392;28;20262;-72
2021/01/31 06:06:20;;;;;;;10.27;7.63;;;0.40;99.90;;;;;;4993459;28;20580;-72
2021/01/31 06:08:48;;;;;;;11.77;8.20;;;0.30;99.90;;;;;;4998463;28;20278;-72
2021/01/31 06:11:29;;;;;;;13.60;7.57;;;0.20;99.90;;;;;;5007035;28;20241;-72
2021/01/31 06:14:28;;;;;;;14.48;8.82;;;0.10;99.90;;;;;;5009803;28;20231;-72
2021/01/31 06:17:05;;;;;;;11.50;7.45;;;0.10;99.90;;;;;;4995106;28;20677;-72
2021/01/31 06:19:38;;;;;;;12.10;8.40;;;0.00;99.90;;;;;;4995940;28;20179;-72
2021/01/31 06:22:06;;;;;;;10.13;7.55;;;0.10;99.90;;;;;;4993784;28;20176;-72
2021/01/31 06:24:34;;;;;;;13.35;8.48;;;0.10;99.90;;;;;;4995454;28;20172;-72
2021/01/31 06:27:02;;;;;;;10.38;7.32;;;0.20;99.90;;;;;;4995285;28;20172;-72
2021/01/31 06:29:58;;;;;;;12.10;7.55;;;0.10;99.90;;;;;;4994818;28;20684;-72
2021/01/31 06:32:29;;;;;;;14.05;7.90;;;0.00;99.90;;;;;;4994266;28;20204;-71
2021/01/31 06:34:58;;;;;;;11.63;8.13;;;-0.10;99.90;;;;;;4994418;28;20203;-72
2021/01/31 06:37:53;;;;;;;10.80;7.70;;;0.00;99.90;;;;;;4994697;28;20199;-71
2021/01/31 06:41:00;;;;;;;9.55;7.72;;;0.00;99.90;;;;;;4994910;28;20232;-72
2021/01/31 06:43:52;;;;;;;11.75;8.25;;;0.00;99.90;;;;;;4972625;28;20212;-72
2021/01/31 06:46:37;;;;;;;8.43;7.53;;;-0.10;99.90;;;;;;4973228;28;20200;-72
2021/01/31 06:49:30;;;;;;;11.95;7.75;;;0.00;99.90;;;;;;4972980;28;20303;-72
2021/01/31 06:52:02;;;;;;;12.40;7.60;;;0.00;99.90;;;;;;4972362;28;20581;-72
2021/01/31 06:55:12;;;;;;;13.18;7.90;;;0.10;99.90;;;;;;4972762;28;20195;-72
2021/01/31 06:58:15;;;;;;;13.25;8.38;;;0.00;99.90;;;;;;4933779;29;20194;-72
2021/01/31 07:01:13;;;;;;;9.75;7.40;;;0.10;99.90;;;;;;4927534;29;20201;-72
2021/01/31 07:03:45;;;;;;;14.18;8.50;;;0.10;99.90;;;;;;4913413;29;20238;-72
2021/01/31 07:06:45;;;;;;;13.77;8.70;;;0.10;99.90;;;;;;4914647;29;20190;-72
2021/01/31 07:09:29;;;;;;;12.40;8.98;;;0.10;99.90;;;;;;4914433;29;20214;-72
2021/01/31 07:12:03;;;;;;;14.30;8.85;;;0.00;99.90;;;;;;4914853;29;20182;-72
2021/01/31 07:14:44;;;;;;;13.55;8.75;;;0.00;99.90;;;;;;4916123;29;20274;-72
2021/01/31 07:17:31;;;;;;;12.45;8.95;;;0.00;99.90;;;;;;4912625;29;20274;-72
2021/01/31 07:20:02;;;;;;;13.07;7.75;;;0.00;99.90;;;;;;4920296;29;20202;-72
2021/01/31 07:22:57;;;;;;;12.00;8.20;;;0.00;99.90;;;;;;4932152;29;20247;-72
2021/01/31 07:25:37;;;;;;;12.40;8.07;;;-0.10;99.90;;;;;;4930600;29;20186;-72
2021/01/31 07:28:11;;;;;;;11.65;8.77;;;-0.10;99.90;;;;;;4935695;29;20190;-72
2021/01/31 07:30:45;;;;;;;12.60;8.65;;;-0.30;99.90;;;;;;4940604;29;20281;-72
2021/01/31 07:33:20;;;;;;;10.65;7.10;;;-0.30;99.90;;;;;;4957550;28;20740;-72
2021/01/31 07:36:00;;;;;;;9.85;7.97;;;-0.30;99.90;;;;;;4988240;28;20211;-72
2021/01/31 07:38:34;;;;;;;11.95;8.02;;;-0.30;99.90;;;;;;5008892;28;20176;-72
2021/01/31 07:41:01;;;;;;;15.20;9.50;;;-0.20;99.90;;;;;;5003559;28;20538;-72
2021/01/31 07:43:30;;;;;;;14.50;9.30;;;-0.10;99.90;;;;;;4997925;28;20196;-72
2021/01/31 07:46:04;;;;;;;11.90;8.50;;;0.00;99.90;;;;;;4997731;28;20176;-72
2021/01/31 07:48:35;;;;;;;11.38;7.60;;;0.00;99.90;;;;;;4996997;28;20664;-71
2021/01/31 07:51:03;;;;;;;13.40;8.43;;;0.10;99.90;;;;;;4996878;28;20251;-73
2021/01/31 07:53:32;;;;;;;13.30;8.38;;;0.10;99.90;;;;;;4996732;28;20649;-72
2021/01/31 07:56:21;;;;;;;11.55;8.35;;;0.20;99.90;;;;;;4996634;28;20540;-72
2021/01/31 07:58:46;;;;;;;12.73;8.73;;;0.20;99.90;;;;;;4986234;28;20201;-72
2021/01/31 08:01:33;;;;;;;10.73;7.97;;;0.30;99.90;;;;;;4988054;28;20176;-73
2021/01/31 08:04:18;;;;;;;11.30;8.50;;;0.30;99.90;;;;;;5011196;28;20246;-72
2021/01/31 08:06:54;;;;;;;13.02;8.25;;;0.30;99.90;;;;;;5014545;28;20187;-72
2021/01/31 08:09:25;;;;;;;12.93;8.95;;;0.30;99.90;;;;;;4997772;28;20222;-72
2021/01/31 08:12:01;;;;;;;14.10;8.75;;;0.30;99.90;;;;;;5014378;28;20172;-72
2021/01/31 08:15:04;;;;;;;12.25;9.00;;;0.20;99.90;;;;;;5014484;28;20534;-72
2021/01/31 08:18:06;;;;;;;13.77;8.80;;;0.30;99.90;;;;;;5014182;28;20595;-72
2021/01/31 08:20:44;;;;;;;15.52;9.70;;;0.30;99.90;;;;;;5011542;28;20755;-72
2021/01/31 08:23:21;;;;;;;14.20;9.00;;;0.40;99.90;;;;;;5001587;28;20199;-72
2021/01/31 08:26:35;;;;;;;13.15;9.15;;;0.40;99.90;;;;;;5005034;28;20261;-73
2021/01/31 08:29:01;;;;;;;10.25;7.93;;;0.40;99.90;;;;;;4990480;28;20217;-72
2021/01/31 08:31:26;;;;;;;12.60;9.47;;;0.40;99.90;;;;;;5013194;28;20591;-73
2021/01/31 08:34:01;;;;;;;12.60;9.40;;;0.40;99.90;;;;;;5012909;28;20194;-73
2021/01/31 08:36:37;;;;;;;12.15;8.60;;;0.30;99.90;;;;;;4996083;28;20545;-73
2021/01/31 08:39:23;;;;;;;15.93;9.68;;;0.30;99.90;;;;;;4996588;28;20175;-73
2021/01/31 08:42:00;;;;;;;13.02;9.65;;;0.20;99.90;;;;;;4993720;28;20176;-73
2021/01/31 08:44:26;;;;;;;16.55;10.57;;;0.10;99.90;;;;;;4996305;28;20475;-72
2021/01/31 08:47:00;;;;;;;14.23;9.60;;;-0.10;99.90;;;;;;4995789;28;20238;-73
2021/01/31 08:49:26;;;;;;;10.68;8.45;;;0.00;99.90;;;;;;4995631;28;20242;-72
2021/01/31 08:52:15;;;;;;;12.45;8.35;;;0.10;99.90;;;;;;4995178;28;20188;-73
2021/01/31 08:54:40;;;;;;;12.02;7.75;;;0.20;99.90;;;;;;4992499;28;20264;-73
2021/01/31 08:57:08;;;;;;;13.83;9.10;;;0.30;99.90;;;;;;4996076;28;20590;-73
2021/01/31 08:59:39;;;;;;;14.63;9.10;;;0.40;99.90;;;;;;4992959;28;20191;-72
2021/01/31 09:02:13;;;;;;;15.10;8.75;;;0.40;99.90;;;;;;4976100;28;20239;-72
2021/01/31 09:04:56;;;;;;;15.10;9.32;;;0.50;99.90;;;;;;4975378;28;20251;-72
2021/01/31 09:07:32;;;;;;;14.98;9.02;;;0.50;99.90;;;;;;4986123;28;20204;-72
2021/01/31 09:10:13;;;;;;;15.15;8.32;;;0.60;99.90;;;;;;4990594;28;20688;-71
2021/01/31 09:12:39;;;;;;;16.33;9.63;;;0.60;99.90;;;;;;4993970;28;20203;-71
2021/01/31 09:15:07;;;;;;;13.10;8.20;;;0.60;99.90;;;;;;4995159;28;20172;-71
2021/01/31 09:17:32;;;;;;;11.85;8.30;;;0.60;99.90;;;;;;4993324;28;20169;-71
2021/01/31 09:20:28;;;;;;;12.50;9.47;;;0.70;99.90;;;;;;4994507;28;20187;-71
2021/01/31 09:22:59;;;;;;;13.43;8.82;;;0.80;99.90;;;;;;4995271;28;20290;-72
2021/01/31 09:25:25;;;;;;;13.50;8.38;;;0.90;99.90;;;;;;4995077;28;20498;-73
2021/01/31 09:28:01;;;;;;;10.98;8.52;;;0.90;99.90;;;;;;4995123;28;20234;-71
2021/01/31 09:30:28;;;;;;;12.00;8.32;;;0.90;99.90;;;;;;4994558;28;20711;-71
2021/01/31 09:33:22;;;;;;;13.02;8.75;;;0.90;99.90;;;;;;4995100;28;20561;-71
2021/01/31 09:35:48;;;;;;;12.27;9.43;;;0.90;99.90;;;;;;4995207;28;20176;-72
2021/01/31 09:38:21;;;;;;;11.37;8.00;;;0.90;99.90;;;;;;4995462;28;20517;-72
2021/01/31 09:40:47;;;;;;;14.30;8.20;;;1.00;99.90;;;;;;4994842;28;20199;-72
2021/01/31 09:43:25;;;;;;;11.75;8.38;;;1.00;99.90;;;;;;4995221;28;20423;-72
2021/01/31 09:45:57;;;;;;;13.32;9.30;;;1.00;99.90;;;;;;4995243;28;20206;-72
2021/01/31 09:48:26;;;;;;;16.20;10.10;;;1.10;99.90;;;;;;4994827;28;20203;-72
2021/01/31 09:50:54;;;;;;;10.87;9.30;;;1.20;99.90;;;;;;4994630;28;20420;-72
2021/01/31 09:53:35;;;;;;;14.32;9.40;;;1.30;99.90;;;;;;4975400;28;20422;-72
2021/01/31 09:56:03;;;;;;;13.67;9.50;;;1.40;99.90;;;;;;4975267;28;20176;-72
2021/01/31 09:58:47;;;;;;;12.40;8.33;;;1.50;99.90;;;;;;4973384;28;20439;-72
2021/01/31 10:01:24;;;;;;;15.73;9.87;;;1.60;99.90;;;;;;4973871;28;20424;-72
2021/01/31 10:04:05;;;;;;;11.83;8.70;;;1.70;99.90;;;;;;4993352;28;20458;-73
2021/01/31 10:06:42;;;;;;;13.30;9.70;;;1.90;99.90;;;;;;4994760;28;20419;-73
2021/01/31 10:09:08;;;;;;;11.67;9.20;;;1.90;99.90;;;;;;4994510;28;20454;-71
2021/01/31 10:11:42;;;;;;;13.30;8.70;;;2.00;99.90;;;;;;4994068;28;20423;-72
2021/01/31 10:14:41;;;;;;;11.90;9.30;;;2.10;99.90;;;;;;4994290;28;20553;-72
2021/01/31 10:17:17;;;;;;;11.30;8.53;;;2.20;99.90;;;;;;4975297;28;20415;-72
2021/01/31 10:19:43;;;;;;;10.90;8.13;;;2.30;99.90;;;;;;4974925;28;20498;-71
2021/01/31 10:22:27;;;;;;;12.90;9.60;;;2.40;99.90;;;;;;4974835;28;20855;-71
2021/01/31 10:24:53;;;;;;;13.57;9.57;;;2.50;99.90;;;;;;4993139;28;20427;-72
2021/01/31 10:27:23;;;;;;;10.57;8.40;;;2.60;99.90;;;;;;4994721;28;20820;-72
2021/01/31 10:29:50;;;;;;;11.60;8.80;;;2.60;99.90;;;;;;4994567;28;20211;-72
2021/01/31 10:32:27;;;;;;;11.97;7.93;;;2.70;99.90;;;;;;4994247;28;20490;-72
2021/01/31 10:34:55;;;;;;;11.83;9.53;;;2.80;99.90;;;;;;4994257;28;20933;-71
2021/01/31 10:37:34;;;;;;;12.83;9.17;;;2.80;99.90;;;;;;4994994;28;20753;-71
2021/01/31 10:40:00;;;;;;;12.23;9.17;;;2.90;99.90;;;;;;4994347;28;20494;-71
2021/01/31 10:42:25;;;;;;;13.50;8.80;;;2.90;99.70;;;;;;4993502;28;20490;-71
2021/01/31 10:44:51;;;;;;;11.73;8.23;;;3.00;99.70;;;;;;4992205;28;20478;-71
2021/01/31 10:47:16;;;;;;;9.47;8.30;;;3.20;99.60;;;;;;4994289;28;20176;-71
2021/01/31 10:49:42;;;;;;;12.00;8.80;;;3.20;99.00;;;;;;4993593;28;20196;-71
2021/01/31 10:52:09;;;;;;;10.93;8.20;;;3.30;99.10;;;;;;4992275;28;20192;-71
2021/01/31 10:54:35;;;;;;;15.23;9.20;;;3.40;99.20;;;;;;4993558;28;20251;-73
2021/01/31 10:57:00;;;;;;;9.93;7.90;;;3.40;98.80;;;;;;4993960;28;20412;-72
2021/01/31 10:59:26;;;;;;;8.63;7.00;;;3.40;98.50;;;;;;4994214;28;20174;-72
2021/01/31 11:01:51;;;;;;;10.10;6.80;;;3.50;98.70;;;;;;4993949;28;20182;-72
2021/01/31 11:04:18;;;;;;;11.03;7.97;;;3.60;98.80;;;;;;4994155;28;20199;-72
2021/01/31 11:06:45;;;;;;;10.33;7.50;;;3.70;98.80;;;;;;4993404;28;20238;-72
2021/01/31 11:09:11;;;;;;;8.87;7.07;;;3.70;98.10;;;;;;4993857;28;20447;-71
2021/01/31 11:11:38;;;;;;;8.40;7.40;;;3.80;97.90;;;;;;4997229;28;20798;-72
2021/01/31 11:14:03;;;;;;;11.70;7.73;;;3.90;98.00;;;;;;4997483;28;20784;-72
2021/01/31 11:16:29;;;;;;;6.23;5.60;;;4.00;97.80;;;;;;4997288;28;20416;-72
2021/01/31 11:18:55;;;;;;;8.20;6.80;;;4.10;97.30;;;;;;4997853;28;20206;-72
2021/01/31 11:21:23;;;;;;;8.13;5.43;;;4.10;97.10;;;;;;4996940;28;20578;-72
2021/01/31 11:23:49;;;;;;;8.77;6.63;;;4.30;97.10;;;;;;4997728;28;20249;-72
2021/01/31 11:26:15;;;;;;;7.30;5.90;;;4.40;97.00;;;;;;4997257;28;20828;-72
2021/01/31 11:28:41;;;;;;;7.10;5.93;;;4.40;96.10;;;;;;4997058;28;20786;-72
2021/01/31 11:31:07;;;;;;;9.10;6.30;;;4.30;96.10;;;;;;4997347;28;20769;-72
2021/01/31 11:33:33;;;;;;;8.33;5.30;;;4.30;95.90;;;;;;4997710;28;20423;-72
2021/01/31 11:35:58;;;;;;;6.77;5.80;;;4.30;95.90;;;;;;4998274;28;20468;-72
2021/01/31 11:38:24;;;;;;;7.50;6.50;;;4.30;96.10;;;;;;4998065;28;20188;-72
2021/01/31 11:40:50;;;;;;;9.10;6.23;;;4.30;96.10;;;;;;4996660;28;20179;-72
2021/01/31 11:43:15;;;;;;;10.40;6.83;;;4.50;96.30;;;;;;4995548;28;20438;-72
2021/01/31 11:45:41;;;;;;;8.57;6.60;;;4.60;96.40;;;;;;4997110;28;20189;-71
2021/01/31 11:48:06;;;;;;;10.70;6.20;;;4.70;96.00;;;;;;4996630;28;20548;-72
2021/01/31 11:50:32;;;;;;;7.47;6.20;;;4.80;95.80;;;;;;4996967;28;20179;-71
2021/01/31 11:52:57;;;;;;;7.37;6.00;;;4.80;95.40;;;;;;4997366;28;20272;-72
2021/01/31 11:55:23;;;;;;;10.67;6.90;;;4.90;95.60;;;;;;4996850;28;20171;-72
2021/01/31 11:57:48;;;;;;;8.90;6.70;;;5.00;95.90;;;;;;4996582;28;20192;-72
2021/01/31 12:00:16;;;;;;;8.27;6.60;;;5.10;95.60;;;;;;4996776;28;20188;-72
2021/01/31 12:02:41;;;;;;;8.30;6.40;;;5.00;94.80;;;;;;4997039;28;20550;-72
2021/01/31 12:05:13;;;;;;;6.90;5.93;;;5.00;95.20;;;;;;4996872;28;20427;-72
2021/01/31 12:07:39;;;;;;;6.70;5.87;;;5.00;95.20;;;;;;4996802;28;20180;-72
2021/01/31 12:10:10;;;;;;;8.80;6.53;;;5.20;95.10;;;;;;4995838;28;20481;-71
2021/01/31 12:12:35;;;;;;;9.20;6.57;;;5.20;94.90;;;;;;4996126;28;20886;-71
2021/01/31 12:15:01;;;;;;;6.77;6.03;;;5.30;94.70;;;;;;4996466;28;20547;-72
2021/01/31 12:17:27;;;;;;;9.70;8.80;;;5.30;94.60;;;;;;4996478;28;20234;-72
2021/01/31 12:19:52;;;;;;;9.03;6.40;;;5.30;94.50;;;;;;4996520;28;20422;-72
2021/01/31 12:22:18;;;;;;;7.03;6.20;;;5.20;94.60;;;;;;4995631;28;20263;-72
2021/01/31 12:24:45;;;;;;;8.53;6.20;;;5.20;94.70;;;;;;4996240;28;20219;-72
2021/01/31 12:27:12;;;;;;;6.80;5.90;;;5.20;95.00;;;;;;4996614;28;20247;-72
2021/01/31 12:29:37;;;;;;;8.47;6.27;;;5.20;94.80;;;;;;4995860;28;20454;-72
2021/01/31 12:32:03;;;;;;;6.67;6.00;;;5.20;94.50;;;;;;4995936;28;20502;-72
2021/01/31 12:34:28;;;;;;;7.60;5.80;;;5.20;94.50;;;;;;4995095;28;20168;-73
2021/01/31 12:36:54;;;;;;;7.60;6.37;;;5.20;94.60;;;;;;4994726;28;20169;-73
2021/01/31 12:39:56;;;;;;;9.80;8.80;;;5.20;94.70;;;;;;5002652;28;20194;-71
2021/01/31 12:42:23;;;;;;;7.60;6.10;;;5.20;94.60;;;;;;4975978;28;20214;-72
2021/01/31 12:44:49;;;;;;;8.73;6.00;;;5.00;94.70;;;;;;4977463;28;20405;-72
2021/01/31 12:47:14;;;;;;;8.30;5.97;;;5.00;94.80;;;;;;4976658;28;20425;-72
2021/01/31 12:49:40;;;;;;;7.27;6.57;;;5.00;95.00;;;;;;4976559;28;20506;-72
2021/01/31 12:52:05;;;;;;;6.40;5.23;;;5.00;94.90;;;;;;4990091;28;20679;-71
2021/01/31 12:54:31;;;;;;;8.87;5.70;;;5.00;94.80;;;;;;4995864;28;20191;-72
2021/01/31 12:56:56;;;;;;;6.60;5.40;;;4.90;94.90;;;;;;4996413;28;20380;-72
2021/01/31 12:59:22;;;;;;;6.67;5.50;;;4.70;95.00;;;;;;5001967;28;20897;-71
2021/01/31 13:01:47;;;;;;;6.70;5.30;;;4.80;95.50;;;;;;5019181;28;20194;-72
2021/01/31 13:04:13;;;;;;;7.40;5.80;;;4.70;95.30;;;;;;5019510;28;20195;-72
2021/01/31 13:06:39;;;;;;;6.93;5.57;;;4.70;95.40;;;;;;5007840;28;20179;-72
2021/01/31 13:09:05;;;;;;;8.60;6.10;;;4.70;95.70;;;;;;4995967;28;20505;-71
2021/01/31 13:11:30;;;;;;;8.00;5.80;;;4.70;95.90;;;;;;4995076;28;20184;-72
2021/01/31 13:13:56;;;;;;;6.27;5.20;;;4.60;95.80;;;;;;4994950;28;20194;-72
2021/01/31 13:16:21;;;;;;;6.90;4.83;;;4.60;96.00;;;;;;4995113;28;20179;-72
2021/01/31 13:18:48;;;;;;;7.10;5.13;;;4.70;96.00;;;;;;4995362;28;20256;-72